This is the latest recevied weather packets stored in our database for station/object DB0FN-10. If no packets are shown the sender has not sent any weather packets the latest 1 day(s).
| Time | Temp. | Humidity | Pressure | Rain* | Wind** | Luminosity | Snow |
|---|---|---|---|---|---|---|---|
| 1778096806 | 15° C | 65% | 1014.5 hPa | - | - | - | - |
| 1778095906 | 15.56° C | 64% | 1014.2 hPa | - | - | - | - |
| 1778095006 | 15.56° C | 63% | 1014.2 hPa | - | - | - | - |
| 1778093206 | 15.56° C | 65% | 1013.9 hPa | - | - | - | - |
| 1778092306 | 15.56° C | 65% | 1013.7 hPa | - | - | - | - |
| 1778091406 | 15° C | 68% | 1013.7 hPa | - | - | - | - |
| 1778082405 | 16.11° C | 68% | 1012.8 hPa | - | - | - | - |
| 1778081505 | 15.56° C | 68% | 1012.7 hPa | - | - | - | - |
| 1778080605 | 15.56° C | 66% | 1012.7 hPa | - | - | - | - |
| 1778079705 | 16.11° C | 65% | 1012.7 hPa | - | - | - | - |
| 1778078805 | 15.56° C | 68% | 1012.9 hPa | - | - | - | - |
| 1778071604 | 19.44° C | 59% | 1010.8 hPa | - | - | - | - |
| 1778070704 | 19.44° C | 59% | 1010.9 hPa | - | - | - | - |
| 1778069804 | 19.44° C | 58% | 1010.8 hPa | - | - | - | - |
| 1778068904 | 19.44° C | 60% | 1010.8 hPa | - | - | - | - |
| 1778068004 | 19.44° C | 58% | 1010.6 hPa | - | - | - | - |
| 1778067104 | 19.44° C | 58% | 1010.6 hPa | - | - | - | - |
| 1778060803 | 18.89° C | 64% | 1011.2 hPa | - | - | - | - |
| 1778059903 | 18.89° C | 62% | 1011.1 hPa | - | - | - | - |
| 1778059003 | 16.67° C | 67% | 1011.1 hPa | - | - | - | - |
| 1778058103 | 18.89° C | 56% | 1011.2 hPa | - | - | - | - |
| 1778057203 | 18.33° C | 60% | 1011.3 hPa | - | - | - | - |
| 1778056303 | 17.78° C | 58% | 1011.2 hPa | - | - | - | - |
| 1778055403 | 18.33° C | 58% | 1011.2 hPa | - | - | - | - |
| 1778054503 | 16.67° C | 64% | 1011 hPa | - | - | - | - |
* Rain since midnight (hover to see other rain measurements)
** Current wind speed in m/s (hover to see current wind gust speed)